sensor_id;sensor_type;location;lat;lon;timestamp;pressure;altitude;pressure_sealevel;temperature;humidity
57574;BME280;68988;49.000;21.242;2023-05-07T00:01:45;98549.66;;;22.37;40.58
57574;BME280;68988;49.000;21.242;2023-05-07T00:04:11;98545.16;;;22.37;40.41
57574;BME280;68988;49.000;21.242;2023-05-07T00:06:36;98552.34;;;22.37;40.47
57574;BME280;68988;49.000;21.242;2023-05-07T00:09:02;98552.06;;;22.38;40.34
57574;BME280;68988;49.000;21.242;2023-05-07T00:11:28;98553.41;;;22.35;40.52
57574;BME280;68988;49.000;21.242;2023-05-07T00:13:54;98549.66;;;22.37;40.53
57574;BME280;68988;49.000;21.242;2023-05-07T00:16:19;98544.31;;;22.37;39.98
57574;BME280;68988;49.000;21.242;2023-05-07T00:18:44;98548.06;;;22.35;40.39
57574;BME280;68988;49.000;21.242;2023-05-07T00:21:10;98548.06;;;22.35;40.50
57574;BME280;68988;49.000;21.242;2023-05-07T00:23:36;98542.16;;;22.33;40.39
57574;BME280;68988;49.000;21.242;2023-05-07T00:26:01;98542.72;;;22.35;40.45
57574;BME280;68988;49.000;21.242;2023-05-07T00:28:26;98542.16;;;22.33;40.58
57574;BME280;68988;49.000;21.242;2023-05-07T00:30:52;98551.00;;;22.34;40.49
57574;BME280;68988;49.000;21.242;2023-05-07T00:33:17;98549.91;;;22.35;40.41
57574;BME280;68988;49.000;21.242;2023-05-07T00:35:43;98556.88;;;22.36;40.51
57574;BME280;68988;49.000;21.242;2023-05-07T00:38:08;98557.13;;;22.34;40.63
57574;BME280;68988;49.000;21.242;2023-05-07T00:40:34;98558.19;;;22.33;40.51
57574;BME280;68988;49.000;21.242;2023-05-07T00:42:59;98561.69;;;22.34;40.33
57574;BME280;68988;49.000;21.242;2023-05-07T00:45:28;98560.88;;;22.33;40.62
57574;BME280;68988;49.000;21.242;2023-05-07T00:47:58;98568.09;;;22.33;40.43
57574;BME280;68988;49.000;21.242;2023-05-07T00:50:25;98565.41;;;22.33;40.75
57574;BME280;68988;49.000;21.242;2023-05-07T00:52:51;98564.63;;;22.32;40.65
57574;BME280;68988;49.000;21.242;2023-05-07T00:55:17;98554.72;;;22.33;40.58
57574;BME280;68988;49.000;21.242;2023-05-07T00:57:42;98561.69;;;22.34;40.46
57574;BME280;68988;49.000;21.242;2023-05-07T01:00:08;98557.13;;;22.34;40.57
57574;BME280;68988;49.000;21.242;2023-05-07T01:02:35;98563.78;;;22.32;40.49
57574;BME280;68988;49.000;21.242;2023-05-07T01:05:01;98560.88;;;22.33;40.54
57574;BME280;68988;49.000;21.242;2023-05-07T01:07:29;98562.19;;;22.31;40.75
57574;BME280;68988;49.000;21.242;2023-05-07T01:09:56;98571.00;;;22.31;40.53
57574;BME280;68988;49.000;21.242;2023-05-07T01:12:23;98565.41;;;22.33;40.68
57574;BME280;68988;49.000;21.242;2023-05-07T01:14:49;98568.34;;;22.31;40.38
57574;BME280;68988;49.000;21.242;2023-05-07T01:17:16;98566.72;;;22.30;40.51
57574;BME280;68988;49.000;21.242;2023-05-07T01:19:41;98565.66;;;22.31;40.45
57574;BME280;68988;49.000;21.242;2023-05-07T01:22:08;98561.69;;;22.34;40.46
57574;BME280;68988;49.000;21.242;2023-05-07T01:24:35;98554.97;;;22.31;40.63
57574;BME280;68988;49.000;21.242;2023-05-07T01:27:01;98563.78;;;22.32;40.54
57574;BME280;68988;49.000;21.242;2023-05-07T01:29:27;98558.72;;;22.30;40.46
57574;BME280;68988;49.000;21.242;2023-05-07T01:31:52;98568.34;;;22.31;40.46
57574;BME280;68988;49.000;21.242;2023-05-07T01:34:19;98563.78;;;22.32;40.29
57574;BME280;68988;49.000;21.242;2023-05-07T01:36:46;98563.00;;;22.31;40.71
57574;BME280;68988;49.000;21.242;2023-05-07T01:39:13;98566.47;;;22.32;40.59
57574;BME280;68988;49.000;21.242;2023-05-07T01:41:39;98564.88;;;22.31;40.57
57574;BME280;68988;49.000;21.242;2023-05-07T01:44:05;98571.81;;;22.32;40.69
57574;BME280;68988;49.000;21.242;2023-05-07T01:46:32;98563.78;;;22.32;40.64
57574;BME280;68988;49.000;21.242;2023-05-07T01:48:58;98567.28;;;22.32;40.46
57574;BME280;68988;49.000;21.242;2023-05-07T01:51:23;98556.53;;;22.27;40.46
57574;BME280;68988;49.000;21.242;2023-05-07T01:53:49;98565.09;;;22.29;40.39
57574;BME280;68988;49.000;21.242;2023-05-07T01:56:17;98566.72;;;22.30;40.64
57574;BME280;68988;49.000;21.242;2023-05-07T01:58:44;98570.44;;;22.29;40.60
57574;BME280;68988;49.000;21.242;2023-05-07T02:01:10;98561.59;;;22.24;40.55
57574;BME280;68988;49.000;21.242;2023-05-07T02:03:35;98570.44;;;22.29;40.71
57574;BME280;68988;49.000;21.242;2023-05-07T02:06:01;98569.63;;;22.29;40.83
57574;BME280;68988;49.000;21.242;2023-05-07T02:08:27;98566.72;;;22.30;40.46
57574;BME280;68988;49.000;21.242;2023-05-07T02:10:52;98565.66;;;22.31;40.46
57574;BME280;68988;49.000;21.242;2023-05-07T02:13:19;98566.72;;;22.30;40.34
57574;BME280;68988;49.000;21.242;2023-05-07T02:15:45;98572.53;;;22.27;40.52
57574;BME280;68988;49.000;21.242;2023-05-07T02:18:15;98571.75;;;22.27;40.59
57574;BME280;68988;49.000;21.242;2023-05-07T02:20:40;98566.41;;;22.27;40.64
57574;BME280;68988;49.000;21.242;2023-05-07T02:23:06;98563.47;;;22.28;40.21
57574;BME280;68988;49.000;21.242;2023-05-07T02:25:31;98566.41;;;22.27;40.53
57574;BME280;68988;49.000;21.242;2023-05-07T02:27:57;98574.44;;;22.27;40.66
57574;BME280;68988;49.000;21.242;2023-05-07T02:30:22;98563.75;;;22.27;40.53
57574;BME280;68988;49.000;21.242;2023-05-07T02:32:48;98561.88;;;22.27;40.61
57574;BME280;68988;49.000;21.242;2023-05-07T02:35:13;98565.34;;;22.28;40.60
57574;BME280;68988;49.000;21.242;2023-05-07T02:37:38;98571.50;;;22.28;40.45
57574;BME280;68988;49.000;21.242;2023-05-07T02:40:04;98568.81;;;22.28;40.50
57574;BME280;68988;49.000;21.242;2023-05-07T02:42:30;98569.88;;;22.27;40.52
57574;BME280;68988;49.000;21.242;2023-05-07T02:44:55;98574.69;;;22.25;40.38
57574;BME280;68988;49.000;21.242;2023-05-07T02:47:21;98565.63;;;22.26;40.49
57574;BME280;68988;49.000;21.242;2023-05-07T02:49:46;98561.31;;;22.25;40.86
57574;BME280;68988;49.000;21.242;2023-05-07T02:52:11;98557.34;;;22.28;40.54
57574;BME280;68988;49.000;21.242;2023-05-07T02:54:37;98554.94;;;22.26;40.46
57574;BME280;68988;49.000;21.242;2023-05-07T02:57:02;98554.94;;;22.26;40.61
57574;BME280;68988;49.000;21.242;2023-05-07T02:59:28;98557.84;;;22.25;40.61
57574;BME280;68988;49.000;21.242;2023-05-07T03:01:53;98561.31;;;22.25;40.61
57574;BME280;68988;49.000;21.242;2023-05-07T03:04:19;98565.63;;;22.26;40.63
57574;BME280;68988;49.000;21.242;2023-05-07T03:06:44;98558.66;;;22.25;40.59
57574;BME280;68988;49.000;21.242;2023-05-07T03:09:09;98564.00;;;22.25;40.66
57574;BME280;68988;49.000;21.242;2023-05-07T03:11:36;98573.06;;;22.24;40.62
57574;BME280;68988;49.000;21.242;2023-05-07T03:14:01;98572.00;;;22.25;40.66
57574;BME280;68988;49.000;21.242;2023-05-07T03:16:27;98573.06;;;22.24;40.63
57574;BME280;68988;49.000;21.242;2023-05-07T03:18:52;98587.25;;;22.25;40.67
57574;BME280;68988;49.000;21.242;2023-05-07T03:21:18;98585.63;;;22.24;40.69
57574;BME280;68988;49.000;21.242;2023-05-07T03:23:43;98582.41;;;22.22;40.16
57574;BME280;68988;49.000;21.242;2023-05-07T03:26:09;98593.63;;;22.24;40.60
57574;BME280;68988;49.000;21.242;2023-05-07T03:28:34;98594.44;;;22.24;40.54
57574;BME280;68988;49.000;21.242;2023-05-07T03:31:00;98598.19;;;22.23;40.40
57574;BME280;68988;49.000;21.242;2023-05-07T03:33:25;98602.44;;;22.24;40.73
57574;BME280;68988;49.000;21.242;2023-05-07T03:35:52;98600.84;;;22.23;40.61
57574;BME280;68988;49.000;21.242;2023-05-07T03:38:17;98602.69;;;22.23;40.76
57574;BME280;68988;49.000;21.242;2023-05-07T03:40:43;98607.25;;;22.22;40.43
57574;BME280;68988;49.000;21.242;2023-05-07T03:43:08;98613.38;;;22.23;40.74
57574;BME280;68988;49.000;21.242;2023-05-07T03:45:34;98616.31;;;22.21;40.50
57574;BME280;68988;49.000;21.242;2023-05-07T03:47:59;98618.47;;;22.24;40.62
57574;BME280;68988;49.000;21.242;2023-05-07T03:50:24;98617.69;;;22.24;40.41
57574;BME280;68988;49.000;21.242;2023-05-07T03:52:50;98619.56;;;22.23;40.50
57574;BME280;68988;49.000;21.242;2023-05-07T03:55:15;98620.59;;;22.22;40.38
57574;BME280;68988;49.000;21.242;2023-05-07T03:57:40;98624.91;;;22.23;40.54
57574;BME280;68988;49.000;21.242;2023-05-07T04:00:06;98626.47;;;22.24;40.80
57574;BME280;68988;49.000;21.242;2023-05-07T04:02:33;98625.94;;;22.22;40.74
57574;BME280;68988;49.000;21.242;2023-05-07T04:04:58;98625.16;;;22.22;40.68
57574;BME280;68988;49.000;21.242;2023-05-07T04:07:23;98633.16;;;22.22;40.51
57574;BME280;68988;49.000;21.242;2023-05-07T04:09:49;98618.16;;;22.15;40.48
57574;BME280;68988;49.000;21.242;2023-05-07T04:12:14;98633.97;;;22.22;40.52
57574;BME280;68988;49.000;21.242;2023-05-07T04:14:40;98632.34;;;22.21;40.35
57574;BME280;68988;49.000;21.242;2023-05-07T04:17:05;98619.81;;;22.22;40.83
57574;BME280;68988;49.000;21.242;2023-05-07T04:19:33;98624.91;;;22.23;40.73
57574;BME280;68988;49.000;21.242;2023-05-07T04:21:58;98632.91;;;22.23;40.14
57574;BME280;68988;49.000;21.242;2023-05-07T04:24:24;98630.75;;;22.20;40.61
57574;BME280;68988;49.000;21.242;2023-05-07T04:26:49;98637.69;;;22.21;40.69
57574;BME280;68988;49.000;21.242;2023-05-07T04:29:16;98632.91;;;22.23;40.67
57574;BME280;68988;49.000;21.242;2023-05-07T04:31:41;98636.38;;;22.24;40.42
57574;BME280;68988;49.000;21.242;2023-05-07T04:34:10;98639.84;;;22.24;40.51
57574;BME280;68988;49.000;21.242;2023-05-07T04:36:37;98638.25;;;22.23;40.48
57574;BME280;68988;49.000;21.242;2023-05-07T04:39:03;98638.50;;;22.22;40.56
57574;BME280;68988;49.000;21.242;2023-05-07T04:41:29;98647.34;;;22.27;40.60
57574;BME280;68988;49.000;21.242;2023-05-07T04:43:54;98634.25;;;22.26;40.58
57574;BME280;68988;49.000;21.242;2023-05-07T04:46:20;98641.22;;;22.27;40.55
57574;BME280;68988;49.000;21.242;2023-05-07T04:48:45;98643.63;;;22.28;40.71
57574;BME280;68988;49.000;21.242;2023-05-07T04:51:11;98643.13;;;22.31;40.37
57574;BME280;68988;49.000;21.242;2023-05-07T04:53:37;98637.00;;;22.31;40.56
57574;BME280;68988;49.000;21.242;2023-05-07T04:56:02;98648.75;;;22.35;40.32
57574;BME280;68988;49.000;21.242;2023-05-07T04:58:28;98643.16;;;22.37;40.30
57574;BME280;68988;49.000;21.242;2023-05-07T05:00:57;98649.06;;;22.39;40.34
57574;BME280;68988;49.000;21.242;2023-05-07T05:03:22;98649.06;;;22.39;40.34
57574;BME280;68988;49.000;21.242;2023-05-07T05:05:50;98648.31;;;22.43;40.20
57574;BME280;68988;49.000;21.242;2023-05-07T05:08:17;98644.03;;;22.42;40.67
57574;BME280;68988;49.000;21.242;2023-05-07T05:10:42;98643.22;;;22.42;40.25
57574;BME280;68988;49.000;21.242;2023-05-07T05:13:08;98646.44;;;22.44;40.33
57574;BME280;68988;49.000;21.242;2023-05-07T05:15:34;98653.94;;;22.47;40.22
57574;BME280;68988;49.000;21.242;2023-05-07T05:18:00;98646.94;;;22.41;40.38
57574;BME280;68988;49.000;21.242;2023-05-07T05:20:25;98656.59;;;22.47;40.05
57574;BME280;68988;49.000;21.242;2023-05-07T05:22:51;98660.13;;;22.52;40.23
57574;BME280;68988;49.000;21.242;2023-05-07T05:25:16;98660.94;;;22.53;40.12
57574;BME280;68988;49.000;21.242;2023-05-07T05:27:41;98664.97;;;22.56;40.00
57574;BME280;68988;49.000;21.242;2023-05-07T05:30:07;98671.63;;;22.58;40.10
57574;BME280;68988;49.000;21.242;2023-05-07T05:32:32;98676.44;;;22.56;40.17
57574;BME280;68988;49.000;21.242;2023-05-07T05:34:58;98667.88;;;22.54;40.25
57574;BME280;68988;49.000;21.242;2023-05-07T05:37:23;98678.00;;;22.52;40.08
57574;BME280;68988;49.000;21.242;2023-05-07T05:39:49;98681.75;;;22.51;40.24
57574;BME280;68988;49.000;21.242;2023-05-07T05:42:14;98679.88;;;22.51;40.23
57574;BME280;68988;49.000;21.242;2023-05-07T05:44:39;98682.81;;;22.50;40.18
57574;BME280;68988;49.000;21.242;2023-05-07T05:47:05;98691.63;;;22.50;40.21
57574;BME280;68988;49.000;21.242;2023-05-07T05:49:30;98680.69;;;22.52;40.26
57574;BME280;68988;49.000;21.242;2023-05-07T05:51:55;98690.88;;;22.55;40.31
57574;BME280;68988;49.000;21.242;2023-05-07T05:54:21;98692.75;;;22.55;40.19
57574;BME280;68988;49.000;21.242;2023-05-07T05:56:46;98690.88;;;22.55;40.08
57574;BME280;68988;49.000;21.242;2023-05-07T05:59:12;98681.50;;;22.52;40.17
57574;BME280;68988;49.000;21.242;2023-05-07T06:01:37;98689.81;;;22.56;40.14
57574;BME280;68988;49.000;21.242;2023-05-07T06:04:03;98684.47;;;22.56;40.17
57574;BME280;68988;49.000;21.242;2023-05-07T06:06:29;98687.94;;;22.57;40.12
57574;BME280;68988;49.000;21.242;2023-05-07T06:08:54;98699.19;;;22.59;40.23
57574;BME280;68988;49.000;21.242;2023-05-07T06:11:20;98695.69;;;22.58;40.11
57574;BME280;68988;49.000;21.242;2023-05-07T06:13:45;98690.34;;;22.58;40.17
57574;BME280;68988;49.000;21.242;2023-05-07T06:16:11;98686.38;;;22.61;39.97
57574;BME280;68988;49.000;21.242;2023-05-07T06:18:36;98694.13;;;22.62;40.17
57574;BME280;68988;49.000;21.242;2023-05-07T06:21:01;98691.19;;;22.64;40.00
57574;BME280;68988;49.000;21.242;2023-05-07T06:23:27;98693.06;;;22.63;40.14
57574;BME280;68988;49.000;21.242;2023-05-07T06:25:52;98700.84;;;22.65;40.07
57574;BME280;68988;49.000;21.242;2023-05-07T06:28:18;98710.72;;;22.64;39.96
57574;BME280;68988;49.000;21.242;2023-05-07T06:30:43;98698.16;;;22.65;40.20
57574;BME280;68988;49.000;21.242;2023-05-07T06:33:09;98703.78;;;22.63;40.22
57574;BME280;68988;49.000;21.242;2023-05-07T06:35:34;98700.00;;;22.64;40.22
57574;BME280;68988;49.000;21.242;2023-05-07T06:38:00;98700.84;;;22.65;40.26
57574;BME280;68988;49.000;21.242;2023-05-07T06:40:25;98696.28;;;22.65;40.03
57574;BME280;68988;49.000;21.242;2023-05-07T06:42:51;98688.53;;;22.64;40.23
57574;BME280;68988;49.000;21.242;2023-05-07T06:45:16;98703.25;;;22.66;40.07
57574;BME280;68988;49.000;21.242;2023-05-07T06:47:41;98692.06;;;22.69;40.07
57574;BME280;68988;49.000;21.242;2023-05-07T06:50:07;98690.97;;;22.70;40.04
57574;BME280;68988;49.000;21.242;2023-05-07T06:52:33;98696.56;;;22.69;40.11
57574;BME280;68988;49.000;21.242;2023-05-07T06:54:59;98698.72;;;22.72;40.06
57574;BME280;68988;49.000;21.242;2023-05-07T06:57:25;98699.81;;;22.71;40.04
57574;BME280;68988;49.000;21.242;2023-05-07T06:59:50;98697.69;;;22.73;40.17
57574;BME280;68988;49.000;21.242;2023-05-07T07:02:15;98694.22;;;22.73;40.01
57574;BME280;68988;49.000;21.242;2023-05-07T07:04:41;98691.28;;;22.74;40.13
57574;BME280;68988;49.000;21.242;2023-05-07T07:07:07;98691.03;;;22.76;40.12
57574;BME280;68988;49.000;21.242;2023-05-07T07:09:32;98689.13;;;22.76;40.04
57574;BME280;68988;49.000;21.242;2023-05-07T07:11:58;98694.22;;;22.78;39.96
57574;BME280;68988;49.000;21.242;2023-05-07T07:14:23;98694.22;;;22.78;39.94
57574;BME280;68988;49.000;21.242;2023-05-07T07:16:48;98699.03;;;22.76;40.01
57574;BME280;68988;49.000;21.242;2023-05-07T07:19:14;98696.91;;;22.78;40.00
57574;BME280;68988;49.000;21.242;2023-05-07T07:21:41;98702.25;;;22.78;40.17
57574;BME280;68988;49.000;21.242;2023-05-07T07:24:06;98702.00;;;22.79;40.17
57574;BME280;68988;49.000;21.242;2023-05-07T07:26:31;98699.84;;;22.81;39.93
57574;BME280;68988;49.000;21.242;2023-05-07T07:28:57;98706.81;;;22.82;39.89
57574;BME280;68988;49.000;21.242;2023-05-07T07:31:22;98704.69;;;22.84;40.00
57574;BME280;68988;49.000;21.242;2023-05-07T07:33:47;98704.69;;;22.84;39.85
57574;BME280;68988;49.000;21.242;2023-05-07T07:36:15;98709.25;;;22.84;40.05
57574;BME280;68988;49.000;21.242;2023-05-07T07:38:40;98715.38;;;22.84;39.86
57574;BME280;68988;49.000;21.242;2023-05-07T07:41:08;98710.88;;;22.85;39.87
57574;BME280;68988;49.000;21.242;2023-05-07T07:43:33;98710.88;;;22.85;39.86
57574;BME280;68988;49.000;21.242;2023-05-07T07:45:58;98702.84;;;22.85;40.01
57574;BME280;68988;49.000;21.242;2023-05-07T07:48:24;98706.06;;;22.87;39.80
57574;BME280;68988;49.000;21.242;2023-05-07T07:50:49;98700.16;;;22.85;40.05
57574;BME280;68988;49.000;21.242;2023-05-07T07:53:16;98707.09;;;22.86;40.03
57574;BME280;68988;49.000;21.242;2023-05-07T07:55:42;98696.41;;;22.86;40.00
57574;BME280;68988;49.000;21.242;2023-05-07T07:58:07;98698.03;;;22.87;39.94
57574;BME280;68988;49.000;21.242;2023-05-07T08:00:33;98701.50;;;22.87;40.03
57574;BME280;68988;49.000;21.242;2023-05-07T08:02:58;98698.03;;;22.87;39.90
57574;BME280;68988;49.000;21.242;2023-05-07T08:05:24;98693.19;;;22.84;39.82
57574;BME280;68988;49.000;21.242;2023-05-07T08:07:50;98698.03;;;22.87;39.94
57574;BME280;68988;49.000;21.242;2023-05-07T08:10:17;98706.06;;;22.87;39.96
57574;BME280;68988;49.000;21.242;2023-05-07T08:12:49;98708.72;;;22.87;40.02
57574;BME280;68988;49.000;21.242;2023-05-07T08:15:15;98719.41;;;22.87;39.99
57574;BME280;68988;49.000;21.242;2023-05-07T08:17:40;98714.63;;;22.89;39.83
57574;BME280;68988;49.000;21.242;2023-05-07T08:20:08;98702.88;;;22.90;40.04
57574;BME280;68988;49.000;21.242;2023-05-07T08:22:35;98702.88;;;22.90;40.05
57574;BME280;68988;49.000;21.242;2023-05-07T08:25:00;98710.09;;;22.89;40.21
57574;BME280;68988;49.000;21.242;2023-05-07T08:27:26;98706.06;;;22.92;39.80
57574;BME280;68988;49.000;21.242;2023-05-07T08:29:51;98700.72;;;22.92;39.81
57574;BME280;68988;49.000;21.242;2023-05-07T08:32:17;98709.84;;;22.91;39.94
57574;BME280;68988;49.000;21.242;2023-05-07T08:34:42;98712.50;;;22.91;39.83
57574;BME280;68988;49.000;21.242;2023-05-07T08:37:07;98711.41;;;22.92;39.80
57574;BME280;68988;49.000;21.242;2023-05-07T08:39:33;98715.19;;;22.91;39.92
57574;BME280;68988;49.000;21.242;2023-05-07T08:42:00;98722.13;;;22.92;39.78
57574;BME280;68988;49.000;21.242;2023-05-07T08:44:28;98732.81;;;22.92;39.87
57574;BME280;68988;49.000;21.242;2023-05-07T08:46:56;98725.88;;;22.91;39.88
57574;BME280;68988;49.000;21.242;2023-05-07T08:49:21;98734.44;;;22.93;39.71
57574;BME280;68988;49.000;21.242;2023-05-07T08:51:47;98731.75;;;22.93;39.87
57574;BME280;68988;49.000;21.242;2023-05-07T08:54:16;98746.75;;;22.94;39.83
57574;BME280;68988;49.000;21.242;2023-05-07T08:56:41;98747.53;;;22.95;39.76
57574;BME280;68988;49.000;21.242;2023-05-07T08:59:07;98748.59;;;22.94;39.93
57574;BME280;68988;49.000;21.242;2023-05-07T09:01:32;98744.06;;;22.94;39.73
57574;BME280;68988;49.000;21.242;2023-05-07T09:04:00;98739.78;;;22.93;39.83
57574;BME280;68988;49.000;21.242;2023-05-07T09:06:26;98752.91;;;22.95;39.77
57574;BME280;68988;49.000;21.242;2023-05-07T09:08:53;98751.28;;;22.94;39.95
57574;BME280;68988;49.000;21.242;2023-05-07T09:11:22;98752.63;;;22.96;39.73
57574;BME280;68988;49.000;21.242;2023-05-07T09:13:49;98752.09;;;22.94;39.90
57574;BME280;68988;49.000;21.242;2023-05-07T09:16:20;98753.69;;;22.95;39.72
57574;BME280;68988;49.000;21.242;2023-05-07T09:18:46;98755.56;;;22.95;39.81
57574;BME280;68988;49.000;21.242;2023-05-07T09:21:16;98759.03;;;22.95;39.83
57574;BME280;68988;49.000;21.242;2023-05-07T09:23:42;98755.56;;;22.95;39.73
57574;BME280;68988;49.000;21.242;2023-05-07T09:26:08;98741.09;;;22.91;39.88
57574;BME280;68988;49.000;21.242;2023-05-07T09:28:42;98757.44;;;22.94;39.98
57574;BME280;68988;49.000;21.242;2023-05-07T09:31:09;98749.69;;;22.93;39.97
57574;BME280;68988;49.000;21.242;2023-05-07T09:33:35;98761.44;;;22.92;39.83
57574;BME280;68988;49.000;21.242;2023-05-07T09:36:08;98766.00;;;22.96;39.71
57574;BME280;68988;49.000;21.242;2023-05-07T09:38:34;98768.16;;;22.94;39.75
57574;BME280;68988;49.000;21.242;2023-05-07T09:41:09;98752.63;;;22.96;39.88
57574;BME280;68988;49.000;21.242;2023-05-07T09:43:36;98761.94;;;22.88;39.86
57574;BME280;68988;49.000;21.242;2023-05-07T09:46:15;98772.97;;;22.97;39.68
57574;BME280;68988;49.000;21.242;2023-05-07T09:48:43;98759.56;;;22.92;39.83
57574;BME280;68988;49.000;21.242;2023-05-07T09:51:21;98768.69;;;22.96;39.81
57574;BME280;68988;49.000;21.242;2023-05-07T09:53:47;98758.47;;;22.88;39.74
57574;BME280;68988;49.000;21.242;2023-05-07T09:56:14;98777.22;;;22.93;39.74
57574;BME280;68988;49.000;21.242;2023-05-07T09:58:41;98770.25;;;22.92;39.75
57574;BME280;68988;49.000;21.242;2023-05-07T10:01:07;98777.47;;;22.92;39.75
57574;BME280;68988;49.000;21.242;2023-05-07T10:03:33;98790.84;;;22.92;40.02
57574;BME280;68988;49.000;21.242;2023-05-07T10:06:00;98784.69;;;22.91;39.77
57574;BME280;68988;49.000;21.242;2023-05-07T10:08:26;98783.63;;;22.92;39.84
57574;BME280;68988;49.000;21.242;2023-05-07T10:10:52;98777.47;;;22.92;39.68
57574;BME280;68988;49.000;21.242;2023-05-07T10:13:19;98787.38;;;22.91;39.84
57574;BME280;68988;49.000;21.242;2023-05-07T10:15:44;98787.91;;;22.93;39.86
57574;BME280;68988;49.000;21.242;2023-05-07T10:18:11;98778.84;;;22.94;39.83
57574;BME280;68988;49.000;21.242;2023-05-07T10:20:38;98804.75;;;22.94;39.79
57574;BME280;68988;49.000;21.242;2023-05-07T10:23:04;98794.06;;;22.94;39.89
57574;BME280;68988;49.000;21.242;2023-05-07T10:25:32;98793.25;;;22.93;39.87
57574;BME280;68988;49.000;21.242;2023-05-07T10:28:01;98803.97;;;22.93;39.75
57574;BME280;68988;49.000;21.242;2023-05-07T10:33:01;98818.38;;;22.92;39.87
57574;BME280;68988;49.000;21.242;2023-05-07T10:35:32;98816.78;;;22.91;39.98
57574;BME280;68988;49.000;21.242;2023-05-07T10:38:02;98816.78;;;22.91;39.77
57574;BME280;68988;49.000;21.242;2023-05-07T10:40:27;98818.38;;;22.92;39.94
57574;BME280;68988;49.000;21.242;2023-05-07T10:45:20;98823.72;;;22.92;39.84
57574;BME280;68988;49.000;21.242;2023-05-07T10:50:38;98817.03;;;22.89;39.65
57574;BME280;68988;49.000;21.242;2023-05-07T11:00:47;98828.78;;;22.88;39.96
57574;BME280;68988;49.000;21.242;2023-05-07T11:03:13;98822.66;;;22.88;39.74
57574;BME280;68988;49.000;21.242;2023-05-07T11:05:41;98830.66;;;22.88;39.76
57574;BME280;68988;49.000;21.242;2023-05-07T11:08:07;98830.66;;;22.88;39.92
57574;BME280;68988;49.000;21.242;2023-05-07T11:10:52;98828.31;;;22.97;39.69
57574;BME280;68988;49.000;21.242;2023-05-07T11:13:19;98826.38;;;22.87;39.98
57574;BME280;68988;49.000;21.242;2023-05-07T11:16:04;98837.06;;;22.87;39.76
57574;BME280;68988;49.000;21.242;2023-05-07T11:18:47;98837.66;;;22.94;39.86
57574;BME280;68988;49.000;21.242;2023-05-07T11:21:13;98848.56;;;22.87;39.96
57574;BME280;68988;49.000;21.242;2023-05-07T11:23:57;98844.84;;;22.88;39.80
57574;BME280;68988;49.000;21.242;2023-05-07T11:26:23;98841.91;;;22.90;39.84
57574;BME280;68988;49.000;21.242;2023-05-07T11:28:48;98845.63;;;22.89;39.97
57574;BME280;68988;49.000;21.242;2023-05-07T11:31:21;98849.97;;;22.95;39.61
57574;BME280;68988;49.000;21.242;2023-05-07T11:33:48;98857.41;;;22.88;39.83
57574;BME280;68988;49.000;21.242;2023-05-07T11:36:13;98861.41;;;22.91;39.75
57574;BME280;68988;49.000;21.242;2023-05-07T11:38:38;98868.09;;;22.88;39.58
57574;BME280;68988;49.000;21.242;2023-05-07T11:41:04;98874.53;;;22.92;39.76
57574;BME280;68988;49.000;21.242;2023-05-07T11:43:31;98883.91;;;22.89;39.73
57574;BME280;68988;49.000;21.242;2023-05-07T11:46:07;98888.22;;;22.96;39.75
57574;BME280;68988;49.000;21.242;2023-05-07T11:48:33;98884.69;;;22.90;39.74
57574;BME280;68988;49.000;21.242;2023-05-07T11:53:25;98888.41;;;22.89;39.75
57574;BME280;68988;49.000;21.242;2023-05-07T11:55:55;98883.63;;;22.91;39.92
57574;BME280;68988;49.000;21.242;2023-05-07T11:58:22;98891.91;;;22.89;39.67
57574;BME280;68988;49.000;21.242;2023-05-07T12:00:49;98901.53;;;22.91;39.69
57574;BME280;68988;49.000;21.242;2023-05-07T12:03:15;98894.59;;;22.89;39.65
57574;BME280;68988;49.000;21.242;2023-05-07T12:05:40;98900.72;;;22.90;39.58
57574;BME280;68988;49.000;21.242;2023-05-07T12:08:07;98905.28;;;22.89;39.83
57574;BME280;68988;49.000;21.242;2023-05-07T12:10:32;98900.72;;;22.90;39.75
57574;BME280;68988;49.000;21.242;2023-05-07T12:12:57;98903.44;;;22.95;39.58
57574;BME280;68988;49.000;21.242;2023-05-07T12:15:23;98908.75;;;22.90;39.65
57574;BME280;68988;49.000;21.242;2023-05-07T12:17:48;98914.09;;;22.90;39.65
57574;BME280;68988;49.000;21.242;2023-05-07T12:20:14;98915.16;;;22.89;39.66
57574;BME280;68988;49.000;21.242;2023-05-07T12:22:40;98920.50;;;22.89;39.72
57574;BME280;68988;49.000;21.242;2023-05-07T12:25:06;98920.50;;;22.89;39.64
57574;BME280;68988;49.000;21.242;2023-05-07T12:27:32;98922.63;;;22.87;39.78
57574;BME280;68988;49.000;21.242;2023-05-07T12:29:57;98917.81;;;22.89;39.94
57574;BME280;68988;49.000;21.242;2023-05-07T12:32:23;98926.69;;;22.89;39.76
57574;BME280;68988;49.000;21.242;2023-05-07T12:34:50;98933.06;;;22.88;39.58
57574;BME280;68988;49.000;21.242;2023-05-07T12:37:15;98933.88;;;22.89;39.69
57574;BME280;68988;49.000;21.242;2023-05-07T12:39:47;98944.31;;;22.91;39.58
57574;BME280;68988;49.000;21.242;2023-05-07T12:42:15;98942.72;;;22.89;39.62
57574;BME280;68988;49.000;21.242;2023-05-07T12:44:41;98925.84;;;22.89;39.78
57574;BME280;68988;49.000;21.242;2023-05-07T12:47:06;98934.94;;;22.88;39.64
57574;BME280;68988;49.000;21.242;2023-05-07T12:49:34;98944.56;;;22.89;39.76
57574;BME280;68988;49.000;21.242;2023-05-07T12:52:01;98939.22;;;22.89;39.82
57574;BME280;68988;49.000;21.242;2023-05-07T12:54:37;98952.09;;;22.92;39.77
57574;BME280;68988;49.000;21.242;2023-05-07T12:57:07;98947.25;;;22.89;39.77
57574;BME280;68988;49.000;21.242;2023-05-07T12:59:37;98947.25;;;22.89;39.57
57574;BME280;68988;49.000;21.242;2023-05-07T13:02:02;98949.34;;;22.82;39.67
57574;BME280;68988;49.000;21.242;2023-05-07T13:04:28;98961.69;;;22.88;39.66